createdAt,value
2019-06-08T00:00:49.702Z,72.30
2019-06-08T00:04:54.327Z,72.30
2019-06-08T00:08:58.849Z,72.90
2019-06-08T00:13:03.464Z,72.20
2019-06-08T00:17:08.070Z,72.20
2019-06-08T00:21:13.482Z,72.20
2019-06-08T00:25:18.933Z,72.20
2019-06-08T00:29:24.610Z,72.10
2019-06-08T00:33:29.220Z,72.50
2019-06-08T00:37:33.822Z,72.50
2019-06-08T00:41:38.456Z,72.40
2019-06-08T00:45:43.017Z,72.60
2019-06-08T00:49:47.517Z,72.60
2019-06-08T00:53:52.090Z,72.70
2019-06-08T00:57:56.731Z,72.40
2019-06-08T01:02:01.441Z,72.60
2019-06-08T01:06:05.945Z,72.50
2019-06-08T01:10:10.909Z,72.30
2019-06-08T01:14:15.464Z,72.20
2019-06-08T01:18:22.217Z,72.50
2019-06-08T01:22:27.623Z,72.30
2019-06-08T01:26:32.308Z,72.50
2019-06-08T01:30:36.951Z,72.30
2019-06-08T01:34:41.504Z,72.50
2019-06-08T01:38:46.044Z,72.70
2019-06-08T01:42:50.603Z,72.70
2019-06-08T01:46:55.155Z,72.70
2019-06-08T01:50:59.664Z,73.70
2019-06-08T01:55:04.324Z,73.50
2019-06-08T01:59:08.878Z,73.50
2019-06-08T02:03:13.471Z,73.70
2019-06-08T02:07:18.029Z,73.80
2019-06-08T02:11:24.679Z,74.10
2019-06-08T02:15:32.429Z,74.20
2019-06-08T02:19:38.800Z,74.10
2019-06-08T02:23:43.411Z,74.10
2019-06-08T02:27:47.962Z,73.90
2019-06-08T02:31:52.475Z,73.80
2019-06-08T02:35:57.026Z,73.80
2019-06-08T02:40:01.586Z,73.40
2019-06-08T02:44:06.665Z,73.60
2019-06-08T02:48:11.245Z,73.50
2019-06-08T02:52:15.851Z,73.70
2019-06-08T02:56:21.933Z,73.10
2019-06-08T03:00:26.466Z,73.40
2019-06-08T03:04:36.060Z,73.20
2019-06-08T03:08:42.068Z,73.20
2019-06-08T03:12:48.643Z,73.10
2019-06-08T03:16:53.202Z,73.60
2019-06-08T03:20:57.745Z,73.70
2019-06-08T03:25:02.328Z,74.30
2019-06-08T03:29:06.884Z,74.00
2019-06-08T03:33:11.431Z,74.60
2019-06-08T03:37:15.957Z,74.10
2019-06-08T03:41:20.521Z,74.30
2019-06-08T03:45:25.111Z,75.20
2019-06-08T03:49:44.956Z,76.20
2019-06-08T03:53:37.760Z,76.00
2019-06-08T03:57:43.935Z,76.00
2019-06-08T04:01:49.964Z,75.60
2019-06-08T04:05:54.663Z,75.50
2019-06-08T04:09:59.220Z,75.30
2019-06-08T04:14:04.043Z,75.10
2019-06-08T04:18:08.582Z,75.30
2019-06-08T04:22:13.166Z,75.00
2019-06-08T04:26:17.721Z,74.90
2019-06-08T04:30:22.384Z,75.00
2019-06-08T04:34:27.030Z,74.90
2019-06-08T04:38:31.545Z,74.90
2019-06-08T04:42:36.172Z,75.00
2019-06-08T04:46:41.333Z,74.50
2019-06-08T04:50:48.050Z,74.10
2019-06-08T04:54:53.125Z,74.00
2019-06-08T04:58:57.659Z,73.70
2019-06-08T05:03:02.258Z,73.70
2019-06-08T05:07:06.818Z,73.70
2019-06-08T05:11:11.385Z,73.90
2019-06-08T05:15:15.967Z,74.00
2019-06-08T05:19:22.600Z,74.90
2019-06-08T05:23:27.265Z,74.60
2019-06-08T05:27:31.837Z,74.40
2019-06-08T05:31:36.388Z,73.80
2019-06-08T05:35:41.377Z,73.90
2019-06-08T05:39:45.900Z,73.50
2019-06-08T05:43:50.460Z,73.30
2019-06-08T05:47:55.031Z,73.40
2019-06-08T05:51:59.613Z,72.40
2019-06-08T05:56:04.251Z,71.90
2019-06-08T06:00:09.485Z,72.00
2019-06-08T06:04:14.111Z,71.60
2019-06-08T06:08:19.496Z,68.80
2019-06-08T06:12:24.106Z,68.00
2019-06-08T06:16:28.666Z,67.40
2019-06-08T06:20:35.463Z,68.50
2019-06-08T06:24:43.328Z,65.40
2019-06-08T06:28:49.679Z,66.90
2019-06-08T06:32:54.379Z,65.80
2019-06-08T06:36:58.928Z,62.10
2019-06-08T06:41:03.434Z,62.40
2019-06-08T06:45:08.413Z,61.70
2019-06-08T06:49:12.946Z,62.10
2019-06-08T06:53:17.503Z,62.50
2019-06-08T06:57:22.064Z,63.60
2019-06-08T07:01:26.702Z,64.80
2019-06-08T07:05:31.345Z,64.30
2019-06-08T07:09:35.916Z,64.00
2019-06-08T07:13:40.489Z,64.20
2019-06-08T07:17:46.045Z,64.50
2019-06-08T07:21:50.681Z,64.90
2019-06-08T07:25:55.213Z,63.30
2019-06-08T07:29:59.767Z,64.70
2019-06-08T07:34:04.337Z,64.60
2019-06-08T07:38:08.947Z,64.10
2019-06-08T07:42:13.449Z,64.40
2019-06-08T07:46:18.017Z,65.90
2019-06-08T07:50:22.581Z,65.60
2019-06-08T07:54:27.151Z,60.30
2019-06-08T07:58:31.708Z,59.10
2019-06-08T08:02:36.261Z,59.40
2019-06-08T08:06:40.824Z,59.70
2019-06-08T08:10:45.362Z,60.50
2019-06-08T08:14:51.255Z,60.20
2019-06-08T08:18:55.886Z,59.90
2019-06-08T08:23:05.515Z,59.60
2019-06-08T08:27:08.445Z,58.90
2019-06-08T08:31:15.272Z,58.80
2019-06-08T08:35:19.080Z,57.80
2019-06-08T08:39:23.641Z,58.60
2019-06-08T08:43:28.168Z,58.40
2019-06-08T08:47:32.725Z,59.70
2019-06-08T08:51:37.776Z,60.30
2019-06-08T08:55:42.472Z,59.40
2019-06-08T08:59:47.709Z,59.10
2019-06-08T09:03:56.020Z,60.00
2019-06-08T09:08:02.007Z,60.70
2019-06-08T09:12:08.327Z,59.40
2019-06-08T09:16:12.442Z,60.50
2019-06-08T09:20:19.255Z,60.10
2019-06-08T09:24:23.330Z,61.10
2019-06-08T09:28:28.515Z,59.40
2019-06-08T09:32:33.311Z,59.90
2019-06-08T09:36:40.680Z,60.90
2019-06-08T09:40:44.117Z,60.10
2019-06-08T09:44:48.693Z,60.80
2019-06-08T09:48:54.154Z,61.60
2019-06-08T09:53:18.298Z,62.00
2019-06-08T09:57:06.764Z,60.00
2019-06-08T10:01:12.498Z,59.50
2019-06-08T10:05:18.504Z,59.20
2019-06-08T10:09:23.191Z,59.30
2019-06-08T10:13:27.988Z,59.40
2019-06-08T10:17:33.989Z,60.10
2019-06-08T10:21:42.746Z,59.80
2019-06-08T10:25:44.856Z,60.40
2019-06-08T10:29:49.393Z,60.60
2019-06-08T10:33:55.571Z,59.90
2019-06-08T10:38:02.775Z,60.30
2019-06-08T10:42:09.398Z,59.60
2019-06-08T10:46:17.390Z,58.90
2019-06-08T10:50:19.450Z,59.60
2019-06-08T10:54:24.154Z,60.00
2019-06-08T10:58:28.758Z,60.00
2019-06-08T11:02:33.337Z,58.80
2019-06-08T11:06:40.110Z,59.30
2019-06-08T11:10:47.511Z,60.80
2019-06-08T11:14:52.149Z,60.30
2019-06-08T11:18:59.069Z,61.60
2019-06-08T11:23:03.610Z,60.60
2019-06-08T11:27:12.508Z,59.30
2019-06-08T11:31:16.267Z,59.20
2019-06-08T11:35:20.957Z,59.50
2019-06-08T11:39:25.514Z,58.50
2019-06-08T11:43:30.325Z,58.30
2019-06-08T11:47:34.889Z,58.30
2019-06-08T11:51:39.505Z,56.70
2019-06-08T11:55:44.779Z,57.80
2019-06-08T11:59:50.648Z,56.80
2019-06-08T12:03:57.815Z,56.80
2019-06-08T12:08:02.819Z,57.40
2019-06-08T12:12:13.566Z,57.00
2019-06-08T12:16:15.701Z,58.40
2019-06-08T12:20:21.309Z,58.20
2019-06-08T12:24:41.028Z,55.80
2019-06-08T12:28:32.305Z,55.90
2019-06-08T12:32:36.841Z,56.50
2019-06-08T12:36:41.406Z,55.80
2019-06-08T12:40:48.370Z,54.20
2019-06-08T12:44:52.176Z,55.40
2019-06-08T12:48:58.241Z,56.10
2019-06-08T12:53:02.961Z,56.50
2019-06-08T12:57:11.896Z,55.00
2019-06-08T13:01:14.532Z,56.00
2019-06-08T13:05:22.596Z,57.20
2019-06-08T13:09:29.733Z,55.70
2019-06-08T13:13:31.716Z,57.10
2019-06-08T13:17:38.066Z,57.30
2019-06-08T13:21:42.465Z,57.90
2019-06-08T13:25:48.076Z,57.10
2019-06-08T13:29:52.894Z,57.60
2019-06-08T13:33:58.620Z,57.30
2019-06-08T13:38:03.256Z,56.20
2019-06-08T13:42:07.889Z,56.20
2019-06-08T13:46:13.505Z,54.90
2019-06-08T13:50:20.396Z,55.60
2019-06-08T13:54:24.605Z,55.60
2019-06-08T13:58:33.138Z,56.50
2019-06-08T14:02:35.520Z,55.40
2019-06-08T14:06:40.110Z,54.90
2019-06-08T14:10:44.861Z,55.80
2019-06-08T14:14:49.400Z,55.20
2019-06-08T14:18:53.981Z,56.70
2019-06-08T14:22:58.909Z,54.50
2019-06-08T14:27:03.644Z,54.60
2019-06-08T14:31:10.895Z,52.60
2019-06-08T14:35:14.610Z,53.20
2019-06-08T14:39:23.157Z,54.80
2019-06-08T14:43:31.255Z,55.90
2019-06-08T14:47:34.588Z,55.70
2019-06-08T14:51:49.432Z,55.50
2019-06-08T14:56:05.597Z,55.60
2019-06-08T15:00:00.251Z,54.80
2019-06-08T15:04:04.900Z,55.40
2019-06-08T15:08:09.468Z,53.40
2019-06-08T15:12:14.854Z,54.50
2019-06-08T15:16:19.789Z,53.90
2019-06-08T15:20:24.351Z,54.80
2019-06-08T15:42:31.827Z,51.50
2019-06-08T15:46:37.931Z,53.60
2019-06-08T15:50:42.080Z,52.90
2019-06-08T15:54:48.435Z,52.10
2019-06-08T15:58:52.822Z,51.70
2019-06-08T16:02:57.401Z,51.90
2019-06-08T16:07:01.993Z,51.50
2019-06-08T16:11:06.677Z,51.80
2019-06-08T16:15:12.117Z,52.70
2019-06-08T16:19:16.660Z,53.50
2019-06-08T16:23:21.208Z,52.60
2019-06-08T16:27:25.782Z,53.10
2019-06-08T16:31:31.081Z,53.40
2019-06-08T16:35:35.836Z,52.90
2019-06-08T16:39:40.365Z,53.00
2019-06-08T16:43:44.899Z,51.90
2019-06-08T16:47:49.413Z,52.50
2019-06-08T16:51:53.958Z,51.00
2019-06-08T16:55:58.501Z,51.40
2019-06-08T17:00:30.128Z,51.00
2019-06-08T17:04:09.385Z,52.10
2019-06-08T17:08:13.952Z,53.10
2019-06-08T17:12:18.559Z,53.80
2019-06-08T17:16:23.104Z,53.50
2019-06-08T17:20:27.647Z,52.10
2019-06-08T17:24:32.482Z,53.40
2019-06-08T17:28:37.200Z,53.80
2019-06-08T17:32:42.261Z,53.20
2019-06-08T17:36:46.996Z,52.00
2019-06-08T17:40:51.559Z,52.80
2019-06-08T17:44:56.104Z,52.70
2019-06-08T17:49:00.666Z,52.50
2019-06-08T17:53:05.180Z,52.30
2019-06-08T17:57:09.893Z,54.20
2019-06-08T18:01:14.441Z,56.50
2019-06-08T18:05:19.123Z,58.10
2019-06-08T18:09:23.764Z,58.20
2019-06-08T18:13:28.276Z,57.80
2019-06-08T18:17:33.994Z,58.80
2019-06-08T18:21:40.137Z,60.10
2019-06-08T18:25:44.970Z,59.70
2019-06-08T18:29:50.208Z,59.80
2019-06-08T18:33:54.777Z,59.10
2019-06-08T18:38:08.126Z,60.00
2019-06-08T18:42:10.060Z,60.10
2019-06-08T18:46:14.653Z,60.00
2019-06-08T18:50:19.195Z,61.20
2019-06-08T18:54:23.730Z,60.40
2019-06-08T18:58:28.275Z,59.80
2019-06-08T19:02:39.735Z,59.60
2019-06-08T19:06:45.138Z,59.20
2019-06-08T19:10:50.479Z,59.10
2019-06-08T19:14:55.100Z,59.00
2019-06-08T19:18:59.660Z,58.90
2019-06-08T19:23:04.228Z,59.00
2019-06-08T19:27:08.744Z,59.00
2019-06-08T19:31:13.301Z,59.00
2019-06-08T19:35:18.491Z,59.00
2019-06-08T19:39:23.169Z,59.10
2019-06-08T19:43:27.886Z,59.20
2019-06-08T19:47:32.413Z,59.20
2019-06-08T19:51:38.597Z,59.20
2019-06-08T19:55:43.210Z,59.30
2019-06-08T19:59:47.718Z,59.40
2019-06-08T20:03:53.262Z,59.70
2019-06-08T20:07:57.889Z,59.70
2019-06-08T20:12:02.400Z,59.70
2019-06-08T20:16:08.426Z,59.80
2019-06-08T20:20:13.430Z,59.80
2019-06-08T20:24:18.423Z,59.80
2019-06-08T20:28:23.143Z,59.90
2019-06-08T20:32:28.194Z,60.10
2019-06-08T20:36:32.875Z,60.00
2019-06-08T20:40:38.332Z,60.10
2019-06-08T20:44:43.988Z,60.20
2019-06-08T20:48:50.085Z,60.40
2019-06-08T20:52:57.443Z,60.60
2019-06-08T20:57:00.968Z,60.70
2019-06-08T21:01:07.389Z,60.90
2019-06-08T21:05:11.877Z,61.10
2019-06-08T21:09:18.470Z,61.30
2019-06-08T21:13:22.608Z,60.70
2019-06-08T21:17:27.654Z,61.20
2019-06-08T21:21:32.257Z,61.10
2019-06-08T21:25:37.243Z,61.20
2019-06-08T21:29:49.443Z,61.20
2019-06-08T21:33:50.857Z,61.30
2019-06-08T21:37:55.182Z,61.50
2019-06-08T21:42:03.028Z,61.70
2019-06-08T21:46:07.770Z,61.90
2019-06-08T21:50:12.956Z,62.50
2019-06-08T21:54:17.623Z,62.20
2019-06-08T21:58:22.180Z,62.40
2019-06-08T22:02:26.740Z,62.50
2019-06-08T22:06:31.327Z,62.50
2019-06-08T22:10:37.691Z,62.80
2019-06-08T22:14:42.097Z,62.90
2019-06-08T22:18:47.459Z,63.00
2019-06-08T22:22:53.284Z,63.20
2019-06-08T22:26:58.752Z,63.40
2019-06-08T22:31:04.136Z,63.80
2019-06-08T22:35:08.946Z,64.00
2019-06-08T22:39:13.492Z,63.70
2019-06-08T22:43:18.984Z,64.00
2019-06-08T22:47:24.248Z,64.30
2019-06-08T22:51:28.825Z,64.50
2019-06-08T22:55:33.335Z,64.50
2019-06-08T22:59:37.898Z,65.40
2019-06-08T23:03:42.492Z,65.10
2019-06-08T23:07:48.805Z,65.00
2019-06-08T23:11:55.128Z,65.40
2019-06-08T23:16:01.303Z,66.10
2019-06-08T23:20:08.384Z,65.30
2019-06-08T23:24:12.391Z,65.40
2019-06-08T23:28:18.093Z,65.60
2019-06-08T23:32:22.821Z,65.80
2019-06-08T23:36:47.016Z,65.80
2019-06-08T23:40:33.533Z,66.70
2019-06-08T23:44:38.077Z,66.00
2019-06-08T23:48:42.633Z,67.30
2019-06-08T23:52:47.698Z,65.40
2019-06-08T23:56:52.470Z,65.80
